Latest Weather Observations for Liawenee

IDT60801

Issued at 2:32 pm EST Thursday 28 July 2016 (issued every 30 minutes, with the page automatically refreshed every 10 minutes)

About weather observations | Map of weather stations | Latest weather observations for TAS | Other Formats
Station Details ID: 096033 Name: LIAWENEE Lat: -41.90 Lon: 146.67 Height: 1057.0 m
Data from the previous 72 hours. | See also: Recent months at Liawenee
Date/Time
EST
Temp
°C
App
Temp
°C
Dew
Point
°C
Rel
Hum
%
Delta-T
°C
Wind Press
QNH
hPa
Press
MSL
hPa
Rain since
9am
mm
Dir  Spd
km/h
Gust
km/h
Spd
kts
Gust
kts
28/02:30pm 5.2 -2.7 0.8 73 1.8 W 32 41 17 22 1008.8 1011.0 0.0
28/02:00pm 5.2 -4.0 1.1 75 1.7 W 39 61 21 33 1008.0 1010.2 0.0
28/01:30pm 5.2 -5.7 1.3 76 1.6 WSW 48 69 26 37 1007.5 1009.7 0.0
28/01:01pm 5.0 -5.5 1.5 78 1.5 WSW 46 65 25 35 1007.4 1009.6 0.0
28/01:00pm 5.0 -5.9 1.5 78 1.5 WSW 48 65 26 35 1007.4 1009.6 0.0
28/12:30pm 5.1 -4.9 1.0 75 1.7 WSW 43 65 23 35 1007.7 1009.8 0.0
28/12:00pm 4.8 -6.4 1.7 80 1.3 WSW 50 69 27 37 1008.0 1010.2 0.0
28/11:30am 5.0 -5.5 1.5 78 1.5 WSW 46 72 25 39 1008.0 1010.2 0.0
28/11:00am 5.0 -7.0 1.3 77 1.6 WSW 54 76 29 41 1008.0 1010.2 0.0
28/10:30am 4.7 -7.3 1.4 79 1.4 WSW 54 80 29 43 1007.9 1010.0 0.0
28/10:00am 4.4 -7.2 1.4 81 1.3 WSW 52 70 28 38 1007.4 1009.6 0.0
28/09:30am 4.3 -8.1 1.2 80 1.3 WSW 56 89 30 48 1007.7 1009.8 0.0
28/09:00am 4.0 -8.1 1.2 82 1.2 WSW 54 76 29 41 1007.5 1009.7 1.6
28/08:30am 3.5 -7.8 1.4 86 0.9 WSW 50 74 27 40 1007.7 1009.8 1.6
28/08:00am 3.2 -7.3 1.3 87 0.8 WSW 46 65 25 35 1007.4 1009.6 1.6
28/07:30am 3.1 -8.2 1.3 88 0.7 WSW 50 69 27 37 1006.9 1009.0 1.6
28/07:04am 2.9 -8.0 1.4 90 0.6 WSW 48 67 26 36 1007.0 1009.1 1.6
28/07:00am 2.7 -7.8 1.2 90 0.6 WSW 46 63 25 34 1007.0 1009.1 1.6
28/06:30am 2.9 -7.6 1.3 89 0.7 WSW 46 67 25 36 1006.8 1008.9 1.6
28/06:02am 2.6 -7.6 1.1 90 0.6 WSW 44 63 24 34 1006.8 1008.9 1.6
28/06:00am 2.7 -7.8 1.2 90 0.6 WSW 46 63 25 34 1006.8 1008.9 1.6
28/05:30am 2.8 -7.3 1.5 91 0.5 WSW 44 63 24 34 1006.8 1008.9 1.6
28/05:20am 2.8 -7.7 1.5 91 0.5 WSW 46 65 25 35 1006.8 1008.9 1.6
28/05:00am 2.3 -6.2 1.1 92 0.5 WSW 35 46 19 25 1007.1 1009.2 1.6
28/04:43am 2.1 -5.8 0.9 92 0.5 W 32 50 17 27 1007.3 1009.5 1.6
28/04:30am 2.1 -7.2 0.9 92 0.5 WSW 39 52 21 28 1007.1 1009.2 1.6
28/04:00am 1.7 -6.9 0.1 89 0.6 WSW 35 50 19 27 1007.4 1009.6 1.6
28/03:30am 1.6 -7.4 0.0 89 0.6 WSW 37 54 20 29 1007.3 1009.5 1.6
28/03:21am 1.6 -7.4 0.0 89 0.6 WSW 37 56 20 30 1007.2 1009.4 1.6
28/03:00am 1.5 -8.3 -0.3 88 0.7 WSW 41 57 22 31 1007.5 1009.7 1.6
28/02:31am 1.4 -8.8 -0.4 88 0.7 WSW 43 61 23 33 1007.5 1009.7 1.6
28/02:30am 1.6 -8.8 -0.2 88 0.7 WSW 44 61 24 33 1007.5 1009.7 1.6
28/02:08am 1.6 -8.6 -0.2 88 0.7 WSW 43 61 23 33 1007.8 1009.9 1.6
28/02:00am 1.5 -8.9 -0.3 88 0.7 WSW 44 59 24 32 1007.8 1009.9 1.6
28/01:30am 1.6 -8.2 0.0 89 0.6 W 41 63 22 34 1008.0 1010.2 1.6
28/01:00am 1.3 -8.2 -0.5 88 0.7 W 39 50 21 27 1008.0 1010.2 1.6
28/12:30am 1.0 -7.1 -0.3 91 0.5 W 32 46 17 25 1008.4 1010.6 1.6
28/12:00am 1.3 -7.4 -0.3 89 0.6 W 35 48 19 26 1008.9 1011.1 1.6
 
Date/Time
EST
Temp
°C
App
Temp
°C
Dew
Point
°C
Rel
Hum
%
Delta-T
°C
Wind Press
QNH
hPa
Press
MSL
hPa
Rain since
9am
mm
Dir  Spd
km/h
Gust
km/h
Spd
kts
Gust
kts
27/11:30pm 1.5 -6.7 0.3 92 0.5 W 33 46 18 25 1008.8 1011.0 1.6
27/11:04pm 1.8 -7.3 -0.3 86 0.8 W 37 56 20 30 1008.4 1010.6 1.6
27/11:00pm 1.9 -7.9 -0.2 86 0.8 W 41 54 22 29 1008.5 1010.7 1.6
27/10:30pm 1.9 -6.1 0.7 92 0.5 WSW 32 43 17 23 1008.2 1010.4 1.6
27/10:10pm 1.7 -5.5 0.8 94 0.4 WSW 28 46 15 25 1008.0 1010.2 1.6
27/10:00pm 1.6 -5.6 0.7 94 0.4 WSW 28 35 15 19 1007.8 1009.9 1.6
27/09:30pm 1.8 -6.1 0.9 94 0.4 WSW 32 48 17 26 1007.3 1009.5 1.4
27/09:02pm 1.7 -8.0 0.5 92 0.5 WSW 41 59 22 32 1006.9 1009.0 1.4
27/09:00pm 1.9 -8.1 0.7 92 0.5 WSW 43 59 23 32 1006.9 1009.0 1.4
27/08:30pm 1.5 -7.4 0.8 95 0.3 W 37 63 20 34 1005.9 1008.0 1.0
27/08:01pm 1.6 -6.3 0.9 95 0.3 W 32 50 17 27 1005.3 1007.4 0.2
27/08:00pm 1.6 -6.5 0.7 94 0.4 W 33 50 18 27 1005.2 1007.3 0.2
27/07:56pm 1.8 -6.7 0.8 93 0.4 W 35 54 19 29 1005.1 1007.2 0.2
27/07:30pm 1.6 -7.3 0.7 94 0.4 W 37 54 20 29 1004.3 1006.4 0.0
27/07:00pm 1.4 -7.9 0.5 94 0.4 W 39 54 21 29 1004.2 1006.3 0.0
27/06:52pm 1.3 -7.3 0.4 94 0.4 W 35 54 19 29 1004.1 1006.2 0.0
27/06:30pm 0.9 -7.7 -0.1 93 0.4 WNW 35 48 19 26 1003.8 1005.8 0.0
27/06:00pm 0.5 -8.6 -0.5 93 0.4 WNW 37 56 20 30 1003.8 1005.8 0.0
27/05:35pm 0.4 -9.5 -0.6 93 0.4 W 41 59 22 32 1003.8 1005.8 0.0
27/05:30pm 0.4 -10.0 -0.7 92 0.4 W 44 59 24 32 1003.9 1006.0 0.0
27/05:01pm 0.0 -10.5 -1.0 93 0.4 W 44 63 24 34 1003.4 1005.5 0.0
27/05:00pm 0.1 -10.8 -0.9 93 0.4 W 46 63 25 34 1003.4 1005.5 0.0
27/04:49pm 0.4 -10.4 -0.7 92 0.4 W 46 65 25 35 1003.3 1005.4 0.0
27/04:30pm 0.1 -10.3 -1.5 89 0.6 W 43 56 23 30 1002.7 1004.7 0.0
27/04:00pm 0.0 -11.4 -1.9 87 0.7 W 48 67 26 36 1002.1 1004.1 0.0
27/03:37pm 0.3 -11.1 -1.8 86 0.8 W 48 67 26 36 1002.8 1004.8 0.0
27/03:30pm 0.3 -11.0 -1.6 87 0.7 W 48 65 26 35 1002.4 1004.5 0.0
27/03:20pm 0.5 -9.5 -1.9 84 0.9 W 41 70 22 38 1002.3 1004.4 0.0
27/03:00pm 0.4 -9.2 -1.8 85 0.8 W 39 54 21 29 1002.8 1004.8 0.0
27/02:43pm 0.6 -8.3 -1.9 83 1.0 W 35 67 19 36 1002.7 1004.7 0.0
27/02:32pm 0.9 -6.6 -1.5 84 1.0 W 28 46 15 25 1002.7 1004.7 0.0
27/02:30pm 1.0 -6.9 -1.2 85 0.8 W 30 44 16 24 1002.8 1004.8 0.0
27/02:00pm 0.7 -6.8 -1.7 84 0.9 WSW 28 46 15 25 1003.1 1005.2 0.0
27/01:53pm 0.7 -6.9 -1.8 83 1.0 W 28 46 15 25 1003.1 1005.2 0.0
27/01:30pm 0.5 -7.1 -2.0 83 1.0 W 28 37 15 20 1003.3 1005.4 0.0
27/01:00pm 0.2 -6.5 -1.1 91 0.5 W 24 37 13 20 1003.7 1005.7 0.0
27/12:30pm -0.3 -7.5 -1.9 89 0.6 W 26 33 14 18 1003.6 1005.6 0.0
27/12:00pm 0.3 -6.9 -1.8 86 0.8 W 26 35 14 19 1003.3 1005.4 0.0
27/11:52am -0.2 -8.2 -2.3 86 0.8 W 30 48 16 26 1003.3 1005.4 0.0
27/11:30am -0.2 -6.7 -2.4 85 0.8 WSW 22 35 12 19 1003.7 1005.7 0.0
27/11:00am -0.8 -7.3 -2.8 86 0.7 WSW 22 35 12 19 1003.7 1005.7 0.0
27/10:30am -1.2 -8.9 -2.9 88 0.5 WSW 28 39 15 21 1003.2 1005.3 0.0
27/10:00am -1.4 -9.5 -3.0 89 0.5 WSW 30 39 16 21 1002.2 1004.2 0.0
27/09:30am -1.8 -10.9 -3.4 89 0.5 WSW 35 56 19 30 1001.8 1003.8 0.0
27/09:23am -1.9 -11.0 -3.5 89 0.5 WSW 35 56 19 30 1001.8 1003.8 0.0
27/09:00am -2.5 -10.3 -3.9 90 0.4 SW 28 37 15 20 1001.7 1003.7 8.8
27/08:30am -2.8 -11.4 -4.1 91 0.3 SW 32 43 17 23 1001.6 1003.6 8.8
27/08:00am -3.1 -11.9 -4.2 92 0.2 SW 33 43 18 23 1000.7 1002.7 8.8
27/07:30am -2.9 -11.7 -3.9 93 0.2 SW 33 52 18 28 1000.3 1002.3 8.8
27/07:29am -2.9 -11.4 -3.7 94 0.1 SW 32 52 17 28 1000.2 1002.2 8.8
27/07:00am -2.9 -12.4 -3.7 94 0.1 SW 37 54 20 29 999.5 1001.4 8.8
27/06:30am -3.0 -12.2 -4.1 92 0.2 SW 35 57 19 31 998.8 1000.7 8.8
27/06:29am -2.9 -11.7 -4.0 92 0.2 SW 33 57 18 31 998.8 1000.7 8.8
27/06:00am -2.4 -12.2 -3.2 94 0.2 SW 39 54 21 29 998.2 1000.1 8.8
27/05:31am -1.7 -9.3 -2.3 96 0.1 SW 28 50 15 27 997.8 999.7 8.6
27/05:30am -1.7 -8.9 -2.3 96 0.1 SW 26 50 14 27 997.7 999.6 8.6
27/05:00am -1.3 -9.6 -2.0 95 0.2 SW 32 43 17 23 997.5 999.4 8.6
27/04:46am -1.0 -9.3 -1.7 95 0.2 WSW 32 50 17 27 996.9 998.8 8.6
27/04:30am -0.4 -8.2 -0.8 97 0.1 WSW 30 44 16 24 996.2 998.1 8.6
27/04:00am 0.2 -7.9 -0.1 98 0.1 WSW 32 41 17 22 995.3 997.2 8.4
27/03:30am 0.3 -7.8 0.0 98 0.1 W 32 43 17 23 994.6 996.4 8.0
27/03:00am 0.2 -6.4 -0.1 98 0.1 WNW 24 33 13 18 994.5 996.3 7.2
27/02:30am 0.3 -6.2 0.0 98 0.1 WNW 24 33 13 18 994.5 996.3 7.0
27/02:00am 0.2 -6.4 -0.2 97 0.2 WNW 24 37 13 20 994.6 996.4 6.4
27/01:30am 0.2 -7.1 -0.2 97 0.2 WNW 28 41 15 22 994.4 996.2 6.4
27/01:03am 0.3 -7.0 -0.1 97 0.2 NW 28 50 15 27 994.5 996.3 6.4
27/01:00am 0.3 -6.6 -0.1 97 0.2 NW 26 43 14 23 994.6 996.4 6.4
27/12:30am 0.3 -6.6 0.0 98 0.1 NW 26 39 14 21 994.8 996.6 6.4
27/12:01am 0.3 -7.4 0.0 98 0.1 NW 30 48 16 26 995.2 997.1 5.8
27/12:00am 0.3 -7.8 0.0 98 0.1 NW 32 48 17 26 995.2 997.1 5.8
 
Date/Time
EST
Temp
°C
App
Temp
°C
Dew
Point
°C
Rel
Hum
%
Delta-T
°C
Wind Press
QNH
hPa
Press
MSL
hPa
Rain since
9am
mm
Dir  Spd
km/h
Gust
km/h
Spd
kts
Gust
kts
26/11:51pm 0.3 -7.0 -0.1 97 0.2 NW 28 48 15 26 995.0 996.8 5.8
26/11:30pm 0.2 -6.8 -0.2 97 0.2 NW 26 37 14 20 995.3 997.2 5.8
26/11:00pm 0.1 -6.1 -0.3 97 0.2 NW 22 37 12 20 995.9 997.8 5.8
26/10:30pm -0.1 -6.0 -0.5 97 0.1 NW 20 35 11 19 996.1 998.0 5.8
26/10:00pm -0.2 -5.9 -0.6 97 0.1 NW 19 32 10 17 996.5 998.3 5.6
26/09:30pm -0.3 -7.3 -0.7 97 0.1 NW 26 41 14 22 996.6 998.4 5.6
26/09:00pm -0.5 -8.3 -0.9 97 0.1 NW 30 46 16 25 996.7 998.6 5.6
26/08:51pm -0.5 -7.9 -0.9 97 0.1 NW 28 46 15 25 996.6 998.4 5.6
26/08:30pm -0.7 -7.8 -1.3 96 0.2 NW 26 43 14 23 996.9 998.8 5.6
26/08:00pm -0.9 -7.3 -1.6 95 0.2 NW 22 35 12 19 997.2 999.1 5.6
26/07:30pm -0.7 -7.4 -1.3 96 0.2 NW 24 37 13 20 997.3 999.2 5.6
26/07:00pm -0.8 -6.8 -1.2 97 0.1 NW 20 33 11 18 997.6 999.5 5.6
26/06:30pm -1.0 -7.8 -1.6 96 0.2 NW 24 41 13 22 997.3 999.2 5.4
26/06:00pm -1.2 -8.4 -1.8 96 0.2 WNW 26 41 14 22 997.5 999.4 5.4
26/05:38pm -1.3 -8.9 -2.0 95 0.2 WNW 28 46 15 25 997.5 999.4 5.4
26/05:30pm -1.3 -8.9 -2.0 95 0.2 WNW 28 44 15 24 997.5 999.4 5.4
26/05:00pm -1.2 -8.0 -1.8 96 0.2 WNW 24 37 13 20 997.6 999.5 5.4
26/04:30pm -1.2 -8.8 -2.0 94 0.2 W 28 41 15 22 997.6 999.5 5.4
26/04:00pm -1.1 -9.1 -2.1 93 0.3 WNW 30 44 16 24 997.8 999.7 5.4
26/03:30pm -0.9 -9.3 -2.3 90 0.5 WNW 32 44 17 24 998.0 999.9 5.4
26/03:03pm -0.5 -8.0 -1.6 92 0.4 WNW 28 46 15 25 998.2 1000.1 5.4
26/03:00pm -0.5 -7.6 -1.5 93 0.4 WNW 26 43 14 23 998.2 1000.1 5.4
26/02:30pm -0.4 -8.4 -2.0 89 0.6 WNW 30 52 16 28 998.0 999.9 5.4
26/02:00pm -0.4 -8.7 -2.0 89 0.6 WNW 32 54 17 29 998.1 1000.0 5.4
26/01:30pm -0.2 -6.9 -1.3 92 0.4 WNW 24 37 13 20 998.1 1000.0 5.4
26/01:00pm -0.1 -6.4 -1.1 93 0.4 WNW 22 41 12 22 998.3 1000.3 4.8
26/12:30pm -0.6 -7.3 -1.4 94 0.3 WNW 24 33 13 18 998.7 1000.6 4.4
26/12:00pm -0.3 -8.6 -1.4 92 0.4 WNW 32 44 17 24 998.5 1000.4 4.4
26/11:31am -0.7 -9.0 -1.8 92 0.4 W 32 50 17 27 998.2 1000.1 4.2
26/11:30am -0.7 -9.2 -1.8 92 0.4 W 33 50 18 27 998.2 1000.1 4.2
26/11:09am -0.7 -9.2 -2.0 91 0.4 W 33 52 18 28 998.0 999.9 4.2
26/11:00am -0.7 -8.2 -1.5 94 0.3 W 28 39 15 21 998.0 999.9 4.2
26/10:30am -1.3 -10.3 -2.4 92 0.3 W 35 48 19 26 997.2 999.1 4.0
26/10:00am -1.6 -10.0 -2.6 93 0.3 W 32 43 17 23 997.3 999.2 2.6
26/09:30am -2.0 -10.5 -3.1 92 0.3 WSW 32 44 17 24 997.5 999.4 1.0
26/09:00am -2.2 -10.7 -3.0 94 0.2 W 32 43 17 23 997.2 999.1 8.6
26/08:41am -2.4 -10.9 -3.1 95 0.1 W 32 50 17 27 997.1 999.0 8.2
26/08:30am -2.6 -9.9 -3.1 96 0.1 W 26 37 14 20 997.0 998.9 8.0
26/08:27am -2.5 -10.2 -3.0 96 0.1 W 28 46 15 25 997.0 998.9 7.8
26/08:00am -3.0 -10.0 -3.7 95 0.1 W 24 32 13 17 996.6 998.4 7.8
26/07:31am -2.9 -11.4 -3.7 94 0.1 WSW 32 50 17 27 995.8 997.6 7.8
26/07:30am -3.1 -11.7 -3.9 94 0.1 WSW 32 43 17 23 995.9 997.8 7.8
26/07:00am -2.9 -12.0 -3.3 97 0.0 W 35 46 19 25 995.2 997.1 7.8
26/06:30am -2.8 -10.9 -3.1 98 0.0 W 30 43 16 23 994.4 996.2 7.8
26/06:00am -2.6 -10.3 -2.9 98 0.0 W 28 39 15 21 993.6 995.4 7.6
26/05:30am -2.9 -9.1 -3.2 98 0.0 W 20 32 11 17 993.2 995.0 7.4
26/05:00am -3.1 -12.2 -3.5 97 0.0 W 35 48 19 26 992.7 994.5 7.4
26/04:35am -2.9 -11.4 -3.3 97 0.0 W 32 50 17 27 991.9 993.7 7.4
26/04:30am -2.7 -10.0 -3.0 98 0.0 W 26 39 14 21 992.0 993.8 7.4
26/04:00am -2.5 -11.0 -3.0 96 0.1 W 32 43 17 23 991.6 993.3 7.2
26/03:30am -2.6 -11.1 -3.0 97 0.0 W 32 50 17 27 991.1 992.9 7.2
26/03:03am -2.4 -10.1 -2.7 98 0.0 W 28 52 15 28 991.2 993.0 7.0
26/03:00am -2.4 -10.1 -2.7 98 0.0 W 28 39 15 21 991.1 992.9 7.0
26/02:30am -2.5 -12.6 -2.8 98 0.0 W 41 67 22 36 991.1 992.9 6.8
26/02:27am -2.4 -11.8 -2.7 98 0.0 W 37 57 20 31 991.2 993.0 6.8
26/02:00am -2.4 -10.5 -2.8 97 0.0 W 30 44 16 24 990.8 992.5 6.6
26/01:42am -2.5 -11.1 -2.8 98 0.0 W 33 56 18 30 990.4 992.1 6.6
26/01:30am -2.6 -10.7 -2.9 98 0.0 W 30 43 16 23 990.4 992.1 6.6
26/01:02am -2.0 -11.7 -2.3 98 0.0 W 39 57 21 31 990.1 991.8 6.4
26/01:00am -2.0 -11.7 -2.3 98 0.0 W 39 52 21 28 990.1 991.8 6.4
26/12:31am -1.6 -9.1 -1.7 99 0.0 W 28 46 15 25 990.1 991.8 6.2
26/12:30am -1.6 -9.5 -1.7 99 0.0 W 30 46 16 25 990.0 991.7 6.0
26/12:00am -1.5 -9.0 -1.6 99 0.0 W 28 39 15 21 989.7 991.4 5.8
 
Date/Time
EST
Temp
°C
App
Temp
°C
Dew
Point
°C
Rel
Hum
%
Delta-T
°C
Wind Press
QNH
hPa
Press
MSL
hPa
Rain since
9am
mm
Dir  Spd
km/h
Gust
km/h
Spd
kts
Gust
kts
25/11:39pm -1.6 -10.5 -1.9 98 0.0 W 35 56 19 30 989.6 991.3 5.4
25/11:30pm -1.4 -10.3 -1.7 98 0.0 W 35 46 19 25 989.6 991.3 5.4
25/11:00pm -1.3 -8.8 -1.6 98 0.0 WNW 28 39 15 21 988.5 990.1 5.0
25/10:53pm -1.3 -8.8 -1.4 99 0.0 W 28 46 15 25 988.5 990.1 5.0
25/10:30pm -1.1 -9.9 -1.2 99 0.0 W 35 50 19 27 988.7 990.4 4.8
25/10:07pm -0.8 -9.6 -0.9 99 0.0 W 35 54 19 29 988.6 990.2 4.6
25/10:00pm -0.7 -10.6 -1.0 98 0.1 W 41 57 22 31 988.7 990.4 4.6
25/09:52pm -0.5 -8.7 -0.9 97 0.1 W 32 54 17 29 988.7 990.4 4.6
25/09:30pm -0.3 -8.5 -1.1 94 0.3 W 32 43 17 23 987.8 989.5 4.4
25/09:00pm 0.1 -8.0 -0.3 97 0.2 WNW 32 44 17 24 988.1 989.8 4.2
25/08:30pm 0.4 -6.9 -0.2 96 0.2 NW 28 41 15 22 987.5 989.1 4.2
25/08:00pm 0.6 -5.2 0.0 96 0.2 NNW 20 32 11 17 987.1 988.8 3.8
25/07:30pm 0.4 -5.4 0.0 97 0.2 N 20 37 11 20 987.3 988.9 3.6
25/07:00pm 0.4 -5.8 0.0 97 0.2 N 22 41 12 22 988.5 990.1 3.0
25/06:41pm 0.8 -6.5 -0.1 94 0.4 N 28 52 15 28 988.7 990.4 2.6
25/06:30pm 0.9 -5.6 0.0 94 0.4 N 24 46 13 25 988.6 990.2 2.4
25/06:00pm 1.5 -6.2 0.2 91 0.5 NNW 30 56 16 30 989.3 990.9 1.2
25/05:30pm 1.5 -5.8 0.3 92 0.5 N 28 54 15 29 989.8 991.5 0.0
25/05:24pm 1.7 -5.5 0.4 91 0.5 N 28 54 15 29 989.8 991.5 0.0
25/05:00pm 1.4 -4.4 -0.1 90 0.6 NNW 20 50 11 27 990.7 992.4 0.0
25/04:30pm 1.6 -4.3 -0.6 85 0.9 NNW 20 37 11 20 992.0 993.8 0.0
25/04:00pm 2.4 -3.9 -1.2 77 1.4 NW 22 35 12 19 992.7 994.5 0.0
25/03:30pm 3.2 -2.6 -0.4 77 1.4 NW 20 33 11 18 993.4 995.1 0.0
25/03:00pm 2.8 -2.7 0.4 84 1.0 NW 19 35 10 19 994.2 996.1 0.0

Other Formats:

Comma delimited format used in spreadsheet applications
http://www.bom.gov.au/fwo/IDT60801/IDT60801.95959.axf

JavaScript Object Notation format (JSON) in row-major order
http://www.bom.gov.au/fwo/IDT60801/IDT60801.95959.json